createdAt,value
2023-02-15T00:02:26.745Z,101888.53
2023-02-15T00:05:30.389Z,101874.69
2023-02-15T00:08:32.605Z,101874.00
2023-02-15T00:11:52.590Z,101868.09
2023-02-15T00:14:54.292Z,101866.06
2023-02-15T00:17:57.778Z,101858.09
2023-02-15T00:21:03.707Z,101858.78
2023-02-15T00:24:07.946Z,101860.88
2023-02-15T00:27:10.232Z,101861.75
2023-02-15T00:30:13.061Z,101860.88
2023-02-15T00:33:16.143Z,101858.41
2023-02-15T00:36:17.955Z,101851.38
2023-02-15T00:39:20.538Z,101855.34
2023-02-15T00:42:22.411Z,101852.81
2023-02-15T00:45:24.239Z,101851.25
2023-02-15T00:48:28.731Z,101853.19
2023-02-15T00:51:31.721Z,101851.03
2023-02-15T00:54:33.431Z,101848.31
2023-02-15T00:57:35.105Z,101851.84
2023-02-15T01:00:38.134Z,101849.84
2023-02-15T01:03:42.606Z,101847.44
2023-02-15T01:06:44.929Z,101843.31
2023-02-15T01:09:46.799Z,101838.34
2023-02-15T01:12:48.846Z,101847.31
2023-02-15T01:15:54.518Z,101840.50
2023-02-15T01:18:58.285Z,101839.34
2023-02-15T01:22:00.006Z,101834.19
2023-02-15T01:25:01.895Z,101849.88
2023-02-15T01:28:05.496Z,101845.41
2023-02-15T01:31:09.100Z,101832.97
2023-02-15T01:34:12.205Z,101839.34
2023-02-15T01:37:14.257Z,101840.25
2023-02-15T01:40:18.643Z,101831.50
2023-02-15T01:43:20.649Z,101828.06
2023-02-15T01:46:27.752Z,101834.44
2023-02-15T01:49:32.069Z,101825.41
2023-02-15T01:52:35.654Z,101817.66
2023-02-15T01:55:42.353Z,101822.16
2023-02-15T01:58:45.045Z,101825.00
2023-02-15T02:01:47.570Z,101821.94
2023-02-15T02:04:52.980Z,101825.69
2023-02-15T02:07:58.348Z,101821.28
2023-02-15T02:11:00.139Z,101819.13
2023-02-15T02:14:02.100Z,101818.91
2023-02-15T02:17:14.344Z,101813.97
2023-02-15T02:20:38.194Z,101811.19
2023-02-15T02:23:44.986Z,101810.22
2023-02-15T02:27:10.667Z,101814.09
2023-02-15T02:30:41.272Z,101805.47
2023-02-15T02:33:55.103Z,101803.91
2023-02-15T02:37:03.530Z,101801.53
2023-02-15T02:40:13.963Z,101795.13
2023-02-15T02:43:21.885Z,101789.22
2023-02-15T02:46:29.127Z,101793.66
2023-02-15T02:49:34.418Z,101789.00
2023-02-15T02:52:39.717Z,101791.06
2023-02-15T02:55:46.366Z,101791.34
2023-02-15T02:58:52.125Z,101785.19
2023-02-15T03:02:01.392Z,101784.91
2023-02-15T03:05:09.813Z,101790.22
2023-02-15T03:08:14.793Z,101784.91
2023-02-15T03:11:16.967Z,101773.13
2023-02-15T03:14:20.228Z,101772.69
2023-02-15T03:17:25.540Z,101771.88
2023-02-15T03:20:32.738Z,101772.84
2023-02-15T03:23:38.275Z,101778.50
2023-02-15T03:26:43.848Z,101773.13
2023-02-15T03:29:47.447Z,101789.53
2023-02-15T03:32:50.717Z,101786.94
2023-02-15T03:35:59.391Z,101786.03
2023-02-15T03:39:08.486Z,101785.78
2023-02-15T03:42:14.886Z,101787.44
2023-02-15T03:45:22.247Z,101799.22
2023-02-15T03:48:28.626Z,101792.44
2023-02-15T03:51:38.852Z,101795.63
2023-02-15T03:54:44.369Z,101797.28
2023-02-15T03:58:05.247Z,101785.84
2023-02-15T04:01:33.129Z,101791.56
2023-02-15T04:04:37.592Z,101779.22
2023-02-15T04:07:40.625Z,101775.03
2023-02-15T04:10:54.366Z,101769.91
2023-02-15T04:13:57.531Z,101766.84
2023-02-15T04:16:59.292Z,101761.53
2023-02-15T04:20:19.936Z,101763.28
2023-02-15T04:23:41.380Z,101762.19
2023-02-15T04:26:43.101Z,101765.50
2023-02-15T04:29:44.752Z,101761.09
2023-02-15T04:32:46.758Z,101766.53
2023-02-15T04:35:48.412Z,101763.56
2023-02-15T04:38:51.539Z,101762.34
2023-02-15T04:41:53.281Z,101763.03
2023-02-15T04:44:55.206Z,101757.84
2023-02-15T04:47:57.056Z,101754.31
2023-02-15T04:50:58.782Z,101757.59
2023-02-15T04:54:01.772Z,101755.28
2023-02-15T04:57:03.600Z,101758.06
2023-02-15T05:00:09.765Z,101760.34
2023-02-15T05:03:11.379Z,101755.25
2023-02-15T05:06:13.074Z,101749.53
2023-02-15T05:09:16.663Z,101748.19
2023-02-15T05:12:18.300Z,101747.03
2023-02-15T05:15:19.936Z,101743.78
2023-02-15T05:18:22.810Z,101739.28
2023-02-15T05:21:24.501Z,101746.00
2023-02-15T05:24:46.330Z,101742.97
2023-02-15T05:28:06.814Z,101747.47
2023-02-15T05:31:11.356Z,101746.19
2023-02-15T05:34:13.194Z,101742.94
2023-02-15T05:37:14.999Z,101743.41
2023-02-15T05:40:18.409Z,101754.25
2023-02-15T05:43:20.360Z,101757.56
2023-02-15T05:46:22.203Z,101761.31
2023-02-15T05:49:23.887Z,101760.41
2023-02-15T05:52:25.790Z,101754.03
2023-02-15T05:55:28.877Z,101755.94
2023-02-15T05:58:33.118Z,101754.34
2023-02-15T06:01:34.803Z,101760.00
2023-02-15T06:04:36.585Z,101767.25
2023-02-15T06:07:38.495Z,101762.78
2023-02-15T06:10:41.471Z,101762.56
2023-02-15T06:13:43.308Z,101766.28
2023-02-15T06:16:45.169Z,101759.47
2023-02-15T06:19:46.963Z,101773.34
2023-02-15T06:22:48.616Z,101763.72
2023-02-15T06:25:51.663Z,101756.16
2023-02-15T06:28:53.539Z,101760.34
2023-02-15T06:31:55.331Z,101769.81
2023-02-15T06:34:57.092Z,101776.81
2023-02-15T06:37:58.814Z,101784.41
2023-02-15T06:41:01.904Z,101785.38
2023-02-15T06:44:04.031Z,101792.47
2023-02-15T06:47:05.785Z,101788.22
2023-02-15T06:50:08.665Z,101787.09
2023-02-15T06:53:10.368Z,101795.34
2023-02-15T06:56:13.952Z,101788.78
2023-02-15T06:59:15.662Z,101794.88
2023-02-15T07:02:17.388Z,101789.00
2023-02-15T07:05:19.084Z,101798.22
2023-02-15T07:08:21.061Z,101804.78
2023-02-15T07:11:43.155Z,101805.75
2023-02-15T07:14:44.897Z,101797.47
2023-02-15T07:17:46.664Z,101795.56
2023-02-15T07:20:48.476Z,101789.06
2023-02-15T07:23:50.580Z,101788.38
2023-02-15T07:26:53.738Z,101778.28
2023-02-15T07:29:55.573Z,101778.31
2023-02-15T07:33:15.901Z,101786.06
2023-02-15T07:36:17.553Z,101791.75
2023-02-15T07:39:19.163Z,101793.34
2023-02-15T07:42:22.957Z,101796.69
2023-02-15T07:45:24.798Z,101790.31
2023-02-15T07:48:26.727Z,101782.78
2023-02-15T07:51:28.347Z,101776.50
2023-02-15T07:54:30.047Z,101776.94
2023-02-15T07:57:33.183Z,101783.34
2023-02-15T08:00:54.779Z,101771.59
2023-02-15T08:03:57.885Z,101771.84
2023-02-15T08:06:59.586Z,101776.28
2023-02-15T08:10:01.382Z,101772.06
2023-02-15T08:13:04.465Z,101759.84
2023-02-15T08:16:06.524Z,101773.97
2023-02-15T08:19:10.031Z,101781.44
2023-02-15T08:22:14.021Z,101770.88
2023-02-15T08:25:35.743Z,101772.31
2023-02-15T08:28:39.977Z,101769.03
2023-02-15T08:31:42.585Z,101760.28
2023-02-15T08:34:44.480Z,101763.41
2023-02-15T08:37:46.518Z,101760.81
2023-02-15T08:40:48.272Z,101758.25
2023-02-15T08:43:53.404Z,101761.09
2023-02-15T08:46:55.706Z,101751.69
2023-02-15T08:49:57.429Z,101751.22
2023-02-15T08:52:59.064Z,101751.22
2023-02-15T08:56:01.021Z,101745.34
2023-02-15T08:59:04.992Z,101738.25
2023-02-15T09:02:06.751Z,101736.59
2023-02-15T09:05:08.616Z,101730.50
2023-02-15T09:08:10.496Z,101725.81
2023-02-15T09:11:17.548Z,101715.69
2023-02-15T09:14:22.504Z,101726.50
2023-02-15T09:17:24.318Z,101725.81
2023-02-15T09:20:26.066Z,101729.78
2023-02-15T09:23:28.976Z,101724.16
2023-02-15T09:26:32.307Z,101720.41
2023-02-15T09:29:35.542Z,101719.91
2023-02-15T09:32:37.217Z,101717.78
2023-02-15T09:35:39.007Z,101703.41
2023-02-15T09:38:40.668Z,101705.31
2023-02-15T09:42:14.814Z,101711.19
2023-02-15T09:46:09.208Z,101711.66
2023-02-15T09:49:20.614Z,101712.81
2023-02-15T09:52:34.833Z,101716.56
2023-02-15T09:55:46.580Z,101718.47
2023-02-15T09:58:58.761Z,101707.66
2023-02-15T10:02:21.614Z,101715.16
2023-02-15T10:05:30.801Z,101714.47
2023-02-15T10:09:01.341Z,101726.47
2023-02-15T10:12:16.177Z,101722.25
2023-02-15T10:15:30.480Z,101727.22
2023-02-15T10:18:51.955Z,101728.34
2023-02-15T10:22:04.015Z,101731.91
2023-02-15T10:25:19.007Z,101738.47
2023-02-15T10:28:27.578Z,101727.66
2023-02-15T10:31:38.710Z,101739.88
2023-02-15T10:34:51.403Z,101744.16
2023-02-15T10:38:22.409Z,101744.63
2023-02-15T10:41:33.392Z,101740.41
2023-02-15T10:44:51.274Z,101739.19
2023-02-15T10:48:15.551Z,101745.81
2023-02-15T10:51:27.459Z,101743.91
2023-02-15T10:54:37.351Z,101743.91
2023-02-15T10:57:52.547Z,101743.00
2023-02-15T11:01:00.810Z,101740.16
2023-02-15T11:04:35.351Z,101744.38
2023-02-15T11:07:42.270Z,101736.38
2023-02-15T11:10:49.173Z,101720.81
2023-02-15T11:13:57.376Z,101722.94
2023-02-15T11:17:05.883Z,101716.78
2023-02-15T11:20:19.745Z,101707.38
2023-02-15T11:23:25.301Z,101702.63
2023-02-15T11:26:34.076Z,101693.47
2023-02-15T11:29:39.618Z,101686.88
2023-02-15T11:32:44.490Z,101675.34
2023-02-15T11:35:52.527Z,101674.63
2023-02-15T11:39:00.198Z,101675.31
2023-02-15T11:42:07.455Z,101682.16
2023-02-15T11:45:26.924Z,101666.84
2023-02-15T11:48:31.688Z,101668.56
2023-02-15T11:51:33.635Z,101670.78
2023-02-15T11:54:38.590Z,101678.56
2023-02-15T11:57:45.404Z,101669.78
2023-02-15T12:00:50.075Z,101662.72
2023-02-15T12:03:56.682Z,101658.00
2023-02-15T12:07:04.070Z,101658.22
2023-02-15T12:10:19.523Z,101653.69
2023-02-15T12:13:22.105Z,101653.50
2023-02-15T12:16:24.273Z,101643.84
2023-02-15T12:19:32.082Z,101646.31
2023-02-15T12:22:37.350Z,101643.06
2023-02-15T12:25:41.919Z,101638.56
2023-02-15T12:28:52.495Z,101632.22
2023-02-15T12:31:55.586Z,101628.56
2023-02-15T12:35:02.364Z,101625.84
2023-02-15T12:38:22.129Z,101624.47
2023-02-15T12:41:27.371Z,101617.81
2023-02-15T12:44:31.021Z,101622.91
2023-02-15T12:47:33.406Z,101608.03
2023-02-15T12:50:35.350Z,101614.09
2023-02-15T12:53:38.649Z,101599.97
2023-02-15T12:56:41.647Z,101606.69
2023-02-15T12:59:51.846Z,101599.44
2023-02-15T13:02:55.518Z,101598.53
2023-02-15T13:05:59.195Z,101600.97
2023-02-15T13:09:14.115Z,101593.88
2023-02-15T13:12:27.522Z,101589.00
2023-02-15T13:15:35.363Z,101581.59
2023-02-15T13:18:40.112Z,101580.16
2023-02-15T13:21:45.901Z,101575.19
2023-02-15T13:24:51.088Z,101577.00
2023-02-15T13:27:55.851Z,101569.81
2023-02-15T13:30:57.894Z,101571.81
2023-02-15T13:34:04.288Z,101573.31
2023-02-15T13:37:16.082Z,101566.97
2023-02-15T13:40:23.868Z,101555.09
2023-02-15T13:43:41.251Z,101557.56
2023-02-15T13:47:07.720Z,101554.31
2023-02-15T13:50:23.025Z,101549.78
2023-02-15T13:53:39.878Z,101536.78
2023-02-15T13:57:01.960Z,101534.19
2023-02-15T14:00:17.943Z,101537.13
2023-02-15T14:03:48.060Z,101537.34
2023-02-15T14:07:29.540Z,101533.91
2023-02-15T14:10:40.701Z,101529.91
2023-02-15T14:13:55.942Z,101521.00
2023-02-15T14:17:07.640Z,101518.19
2023-02-15T14:20:18.352Z,101526.25
2023-02-15T14:23:36.992Z,101526.41
2023-02-15T14:26:46.464Z,101529.91
2023-02-15T14:29:52.972Z,101529.19
2023-02-15T14:33:00.695Z,101541.41
2023-02-15T14:36:05.053Z,101532.50
2023-02-15T14:39:37.520Z,101537.34
2023-02-15T14:42:45.308Z,101540.38
2023-02-15T14:45:53.802Z,101535.19
2023-02-15T14:49:04.510Z,101527.13
2023-02-15T14:52:09.340Z,101525.50
2023-02-15T14:55:11.090Z,101529.41
2023-02-15T14:58:13.812Z,101520.94
2023-02-15T15:01:15.705Z,101513.22
2023-02-15T15:04:27.016Z,101515.38
2023-02-15T15:07:36.707Z,101509.91
2023-02-15T15:10:41.885Z,101514.41
2023-02-15T15:13:54.431Z,101500.16
2023-02-15T15:16:56.165Z,101511.13
2023-02-15T15:20:01.508Z,101512.00
2023-02-15T15:23:39.865Z,101510.50
2023-02-15T15:26:49.980Z,101505.47
2023-02-15T15:29:52.249Z,101502.63
2023-02-15T15:33:02.560Z,101502.00
2023-02-15T15:36:35.925Z,101507.94
2023-02-15T15:40:08.471Z,101526.38
2023-02-15T15:43:47.335Z,101519.19
2023-02-15T15:47:21.669Z,101523.06
2023-02-15T15:50:23.592Z,101528.50
2023-02-15T15:53:30.573Z,101515.66
2023-02-15T15:56:35.840Z,101513.56
2023-02-15T15:59:37.329Z,101518.25
2023-02-15T16:02:51.521Z,101508.25
2023-02-15T16:05:57.145Z,101516.91
2023-02-15T16:09:12.080Z,101525.41
2023-02-15T16:12:18.453Z,101525.13
2023-02-15T16:15:24.429Z,101530.06
2023-02-15T16:18:28.479Z,101525.63
2023-02-15T16:21:33.050Z,101530.38
2023-02-15T16:25:17.445Z,101533.84
2023-02-15T16:28:21.280Z,101528.53
2023-02-15T16:31:23.446Z,101531.56
2023-02-15T16:34:28.892Z,101529.47
2023-02-15T16:37:34.033Z,101527.63
2023-02-15T16:40:47.016Z,101524.59
2023-02-15T16:43:51.506Z,101526.97
2023-02-15T16:46:54.997Z,101520.16
2023-02-15T16:50:01.497Z,101515.91
2023-02-15T16:53:06.843Z,101515.63
2023-02-15T16:56:08.549Z,101518.81
2023-02-15T16:59:22.954Z,101520.44
2023-02-15T17:02:49.755Z,101523.72
2023-02-15T17:05:51.716Z,101530.53
2023-02-15T17:12:48.468Z,101525.78
2023-02-15T17:16:27.281Z,101525.84
2023-02-15T17:19:32.033Z,101527.94
2023-02-15T17:22:33.883Z,101530.53
2023-02-15T17:25:40.036Z,101522.75
2023-02-15T17:28:47.502Z,101521.84
2023-02-15T17:31:53.418Z,101526.44
2023-02-15T17:35:05.738Z,101520.75
2023-02-15T17:38:18.010Z,101517.59
2023-02-15T17:41:20.254Z,101526.13
2023-02-15T17:44:21.919Z,101529.41
2023-02-15T17:47:27.647Z,101531.31
2023-02-15T17:50:29.598Z,101533.94
2023-02-15T17:53:32.299Z,101531.16
2023-02-15T17:56:34.325Z,101521.72
2023-02-15T17:59:36.006Z,101527.13
2023-02-15T18:02:58.122Z,101524.34
2023-02-15T18:06:18.451Z,101536.38
2023-02-15T18:09:40.401Z,101532.38
2023-02-15T18:12:42.448Z,101535.19
2023-02-15T18:15:44.446Z,101532.63
2023-02-15T18:18:47.715Z,101534.19
2023-02-15T18:21:49.860Z,101527.63
2023-02-15T18:24:51.606Z,101513.25
2023-02-15T18:27:55.063Z,101514.41
2023-02-15T18:30:57.318Z,101508.06
2023-02-15T18:34:03.098Z,101513.44
2023-02-15T18:37:06.941Z,101508.78
2023-02-15T18:40:15.384Z,101515.59
2023-02-15T18:43:17.151Z,101510.88
2023-02-15T18:46:18.864Z,101518.91
2023-02-15T18:49:22.027Z,101514.19
2023-02-15T18:52:28.903Z,101516.53
2023-02-15T18:55:32.921Z,101521.72
2023-02-15T18:58:34.682Z,101524.06
2023-02-15T19:01:36.383Z,101521.47
2023-02-15T19:04:39.558Z,101517.72
2023-02-15T19:07:43.036Z,101513.25
2023-02-15T19:10:45.906Z,101506.94
2023-02-15T19:13:48.835Z,101496.59
2023-02-15T19:16:50.520Z,101495.44
2023-02-15T19:19:53.569Z,101503.50
2023-02-15T19:22:56.967Z,101494.13
2023-02-15T19:25:58.797Z,101491.84
2023-02-15T19:29:02.272Z,101488.38
2023-02-15T19:32:04.705Z,101491.47
2023-02-15T19:35:14.388Z,101498.09
2023-02-15T19:38:19.302Z,101507.75
2023-02-15T19:41:24.778Z,101505.91
2023-02-15T19:44:26.698Z,101491.09
2023-02-15T19:47:28.689Z,101497.69
2023-02-15T19:50:34.060Z,101502.38
2023-02-15T19:53:35.903Z,101505.44
2023-02-15T19:56:37.769Z,101500.28
2023-02-15T19:59:40.648Z,101503.53
2023-02-15T20:02:42.557Z,101512.44
2023-02-15T20:05:46.149Z,101515.25
2023-02-15T20:08:48.080Z,101514.28
2023-02-15T20:11:50.919Z,101512.91
2023-02-15T20:14:53.410Z,101513.81
2023-02-15T20:17:56.719Z,101508.34
2023-02-15T20:21:01.982Z,101518.22
2023-02-15T20:24:04.164Z,101512.13
2023-02-15T20:27:10.041Z,101513.00
2023-02-15T20:30:20.247Z,101510.88
2023-02-15T20:33:22.932Z,101508.72
2023-02-15T20:36:26.415Z,101508.44
2023-02-15T20:39:28.522Z,101506.78
2023-02-15T20:42:30.493Z,101503.25
2023-02-15T20:45:33.094Z,101501.91
2023-02-15T20:48:35.659Z,101514.53
2023-02-15T20:51:40.656Z,101508.84
2023-02-15T20:54:42.376Z,101516.78
2023-02-15T20:57:45.108Z,101513.72
2023-02-15T21:00:47.202Z,101517.03
2023-02-15T21:03:49.040Z,101527.97
2023-02-15T21:06:52.244Z,101528.00
2023-02-15T21:09:54.270Z,101531.53
2023-02-15T21:12:57.938Z,101526.84
2023-02-15T21:16:00.232Z,101534.53
2023-02-15T21:19:02.143Z,101535.25
2023-02-15T21:22:05.487Z,101534.75
2023-02-15T21:25:13.560Z,101535.69
2023-02-15T21:28:18.186Z,101539.13
2023-02-15T21:31:21.814Z,101527.88
2023-02-15T21:34:24.111Z,101531.41
2023-02-15T21:37:34.988Z,101531.38
2023-02-15T21:40:36.988Z,101536.53
2023-02-15T21:43:57.174Z,101536.13
2023-02-15T21:47:17.353Z,101527.94
2023-02-15T21:50:40.106Z,101530.69
2023-02-15T21:53:48.491Z,101528.13
2023-02-15T21:56:51.474Z,101524.38
2023-02-15T21:59:53.238Z,101517.16
2023-02-15T22:02:58.102Z,101519.69
2023-02-15T22:06:00.045Z,101510.09
2023-02-15T22:09:13.141Z,101512.41
2023-02-15T22:12:16.855Z,101530.22
2023-02-15T22:15:20.871Z,101520.28
2023-02-15T22:18:24.709Z,101520.28
2023-02-15T22:21:29.648Z,101518.28
2023-02-15T22:24:32.755Z,101506.84
2023-02-15T22:27:38.881Z,101519.22
2023-02-15T22:30:40.618Z,101505.34
2023-02-15T22:33:42.308Z,101501.84
2023-02-15T22:36:44.079Z,101502.34
2023-02-15T22:39:47.246Z,101504.59
2023-02-15T22:42:50.865Z,101509.06
2023-02-15T22:45:54.957Z,101509.72
2023-02-15T22:48:56.773Z,101512.53
2023-02-15T22:51:58.459Z,101512.63
2023-02-15T22:55:01.538Z,101520.34
2023-02-15T22:58:04.133Z,101515.91
2023-02-15T23:01:06.167Z,101525.53
2023-02-15T23:04:15.010Z,101525.56
2023-02-15T23:07:18.903Z,101513.94
2023-02-15T23:10:24.940Z,101510.78
2023-02-15T23:13:30.312Z,101500.50
2023-02-15T23:16:32.513Z,101503.50
2023-02-15T23:19:34.186Z,101500.34
2023-02-15T23:22:36.181Z,101493.75
2023-02-15T23:25:39.662Z,101500.13
2023-02-15T23:28:41.369Z,101506.69
2023-02-15T23:31:45.319Z,101499.66
2023-02-15T23:34:47.109Z,101498.13
2023-02-15T23:37:48.827Z,101497.22
2023-02-15T23:41:13.436Z,101495.00
2023-02-15T23:44:15.078Z,101501.50
2023-02-15T23:47:41.869Z,101503.84
2023-02-15T23:50:43.770Z,101501.03
2023-02-15T23:53:45.774Z,101503.44
2023-02-15T23:56:52.520Z,101497.44
2023-02-15T23:59:54.209Z,101496.25
